Time;durP1;ratioP1;P1;durP2;ratioP2;P2;SDS_P1;SDS_P2;PMS_P1;PMS_P2;Temp;Humidity;BMP_temperature;BMP_pressure;BME280_temperature;BME280_humidity;BME280_pressure;Samples;Min_cycle;Max_cycle;Signal;HPM_P1;HPM_P2
2024/01/01 00:02:12;;;;;;;3.33;1.43;;;;;;;-143.84;91.54;45144.28;5072638;28;20440;-62
2024/01/01 00:04:39;;;;;;;12.23;1.90;;;;;;;-143.84;91.77;45153.81;5072445;28;20476;-62
2024/01/01 00:07:06;;;;;;;1.67;1.57;;;;;;;-143.84;91.96;45140.47;5072333;28;20452;-62
2024/01/01 00:09:35;;;;;;;1.83;1.67;;;;;;;-143.84;92.16;45153.81;5072352;28;20494;-62
2024/01/01 00:12:02;;;;;;;1.17;1.07;;;;;;;-143.84;92.06;45130.94;5072645;28;20502;-62
2024/01/01 00:14:29;;;;;;;2.40;2.23;;;;;;;-143.84;92.39;45144.28;5072308;28;20543;-62
2024/01/01 00:20:31;;;;;;;1.30;0.90;;;;;;;-143.84;94.05;45151.91;5073092;28;20937;-60
2024/01/01 00:22:58;;;;;;;2.70;1.73;;;;;;;-143.84;94.42;45132.84;5073271;28;20444;-60
2024/01/01 00:25:26;;;;;;;1.63;1.53;;;;;;;-143.84;95.52;45146.19;5073541;28;20838;-60
2024/01/01 00:27:54;;;;;;;3.43;0.83;;;;;;;-143.84;95.75;45129.03;5073496;28;20476;-60
2024/01/01 00:30:21;;;;;;;1.30;1.20;;;;;;;-143.84;96.01;45142.38;5073176;28;20471;-60
2024/01/01 00:32:48;;;;;;;1.90;1.80;;;;;;;-143.84;96.48;45146.19;5073166;28;20441;-60
2024/01/01 00:35:15;;;;;;;2.13;1.93;;;;;;;-143.84;98.05;45121.44;5073422;28;20437;-60
2024/01/01 00:37:42;;;;;;;1.10;0.93;;;;;;;-143.84;98.59;45123.34;5073069;28;20433;-59
2024/01/01 00:40:10;;;;;;;1.10;1.00;;;;;;;-143.84;99.15;45138.56;5073218;28;20456;-61
2024/01/01 00:42:40;;;;;;;2.60;2.40;;;;;;;-143.84;99.30;45134.75;5073185;28;20448;-61
2024/01/01 00:45:08;;;;;;;2.17;2.07;;;;;;;-143.84;99.32;45127.13;5073085;28;21444;-60
2024/01/01 00:47:35;;;;;;;1.10;1.00;;;;;;;-143.84;99.55;45151.91;5073146;28;20915;-60
2024/01/01 00:50:03;;;;;;;1.97;0.93;;;;;;;-143.84;99.50;45106.19;5072865;28;20432;-60
2024/01/01 00:52:33;;;;;;;1.20;1.10;;;;;;;-143.84;100.00;45134.75;5072925;28;20476;-60
2024/01/01 00:55:00;;;;;;;1.57;1.47;;;;;;;-143.84;100.00;45117.63;5072777;28;20884;-60
2024/01/01 00:57:27;;;;;;;3.47;1.97;;;;;;;-143.84;99.96;45115.72;5072613;28;20436;-60
2024/01/01 00:59:55;;;;;;;1.23;1.13;;;;;;;-143.84;99.93;45085.25;5072643;28;20551;-61
2024/01/01 01:02:23;;;;;;;1.50;0.87;;;;;;;-143.84;99.73;45117.63;5072590;28;20437;-60
2024/01/01 01:04:51;;;;;;;1.10;0.80;;;;;;;-143.84;99.94;45117.63;5072412;28;20480;-60
2024/01/01 01:07:18;;;;;;;1.10;0.73;;;;;;;-143.84;99.97;45106.19;5072437;28;20437;-60
2024/01/01 01:09:46;;;;;;;1.93;1.40;;;;;;;-143.84;99.76;45100.47;5072685;28;20452;-61
2024/01/01 01:12:13;;;;;;;1.10;1.00;;;;;;;-143.84;99.58;45146.19;5072621;28;20471;-60
2024/01/01 01:14:40;;;;;;;3.00;2.00;;;;;;;-143.84;99.35;45104.28;5072566;28;20446;-61
2024/01/01 01:17:09;;;;;;;3.90;3.60;;;;;;;-143.84;99.10;45134.75;5072579;28;20910;-61
2024/01/01 01:19:36;;;;;;;1.77;1.00;;;;;;;-143.84;99.09;45096.66;5072165;28;20493;-60
2024/01/01 01:22:03;;;;;;;1.37;1.20;;;;;;;-143.84;98.78;45123.34;5072740;28;20487;-61
2024/01/01 01:24:30;;;;;;;3.10;2.90;;;;;;;-143.84;98.46;45140.47;5072343;28;20484;-61
2024/01/01 01:26:57;;;;;;;1.53;1.43;;;;;;;-143.84;98.74;45136.66;5072470;28;20518;-61
2024/01/01 01:29:25;;;;;;;3.90;2.77;;;;;;;-143.84;98.86;45129.03;5072108;28;20444;-60
2024/01/01 01:31:52;;;;;;;2.50;1.70;;;;;;;-143.84;98.72;45130.94;5072288;28;20970;-60
2024/01/01 01:34:21;;;;;;;2.13;1.00;;;;;;;-143.84;98.74;45115.72;5072190;28;20765;-60
2024/01/01 01:36:48;;;;;;;1.63;1.53;;;;;;;-143.84;99.26;45132.84;5072088;28;20441;-61
2024/01/01 01:39:16;;;;;;;2.20;2.00;;;;;;;-143.84;99.56;45148.09;5072001;28;20461;-60
2024/01/01 01:41:43;;;;;;;2.20;2.10;;;;;;;-143.84;99.65;45144.28;5072342;28;20495;-60
2024/01/01 01:44:10;;;;;;;0.90;0.80;;;;;;;-143.84;100.00;45113.81;5071887;28;20444;-60
2024/01/01 01:46:37;;;;;;;2.70;2.20;;;;;;;-143.84;100.00;45125.22;5072074;28;20915;-60
2024/01/01 01:49:05;;;;;;;2.33;2.13;;;;;;;-143.84;100.00;45113.81;5071807;28;20447;-60
2024/01/01 01:51:33;;;;;;;1.63;1.53;;;;;;;-143.84;100.00;45111.91;5072155;28;20800;-61
2024/01/01 01:54:01;;;;;;;1.83;1.73;;;;;;;-143.84;100.00;45094.78;5071727;28;21270;-61
2024/01/01 01:56:28;;;;;;;1.60;1.50;;;;;;;-143.84;100.00;45110.00;5071855;28;20497;-61
2024/01/01 01:58:56;;;;;;;2.17;2.07;;;;;;;-143.84;100.00;45130.94;5072339;28;20445;-61
2024/01/01 02:01:23;;;;;;;1.43;1.33;;;;;;;-143.84;100.00;45108.09;5071578;28;20433;-60
2024/01/01 02:03:50;;;;;;;2.23;2.03;;;;;;;-143.84;100.00;45102.38;5071998;28;20441;-61
2024/01/01 02:06:17;;;;;;;2.30;1.67;;;;;;;-143.84;100.00;45094.78;5071691;28;20577;-61
2024/01/01 02:08:46;;;;;;;3.10;1.23;;;;;;;-143.84;100.00;45106.19;5071368;28;20444;-60
2024/01/01 02:11:13;;;;;;;1.23;1.13;;;;;;;-143.84;100.00;45121.44;5071356;28;20452;-60
2024/01/01 02:13:40;;;;;;;2.63;1.03;;;;;;;-143.84;100.00;45121.44;5071862;28;20503;-61
2024/01/01 02:16:07;;;;;;;1.20;1.10;;;;;;;-143.84;100.00;45100.47;5071732;28;20452;-61
2024/01/01 02:18:34;;;;;;;7.33;1.37;;;;;;;-143.84;100.00;45117.63;5071239;28;20583;-61
2024/01/01 02:21:01;;;;;;;2.03;1.93;;;;;;;-143.84;100.00;45102.38;5071816;28;20502;-61
2024/01/01 02:23:30;;;;;;;1.43;0.93;;;;;;;-143.84;100.00;45090.97;5070985;28;20437;-61
2024/01/01 02:25:57;;;;;;;1.63;1.43;;;;;;;-143.84;100.00;45125.22;5071420;28;20476;-60
2024/01/01 02:28:24;;;;;;;1.77;0.87;;;;;;;-143.84;100.00;45104.28;5070999;28;20437;-60
2024/01/01 02:30:51;;;;;;;1.70;1.60;;;;;;;-143.84;100.00;45113.81;5071049;28;20865;-60
2024/01/01 02:33:18;;;;;;;2.20;1.23;;;;;;;-143.84;100.00;45096.66;5070822;28;20436;-60
2024/01/01 02:35:45;;;;;;;1.47;1.13;;;;;;;-143.84;100.00;45115.72;5071106;28;20546;-61
2024/01/01 02:38:13;;;;;;;0.97;0.87;;;;;;;-143.84;100.00;45123.34;5071119;28;20494;-60
2024/01/01 02:40:41;;;;;;;2.10;1.97;;;;;;;-143.84;100.00;45100.47;5071120;28;20495;-60
2024/01/01 02:43:08;;;;;;;1.93;1.33;;;;;;;-143.84;100.00;45130.94;5070828;28;20856;-61
2024/01/01 02:45:35;;;;;;;1.30;1.20;;;;;;;-143.84;100.00;45110.00;5070684;28;20480;-60
2024/01/01 02:48:03;;;;;;;2.40;1.63;;;;;;;-143.84;100.00;45096.66;5070805;28;21002;-60
2024/01/01 02:50:30;;;;;;;1.40;1.30;;;;;;;-143.84;100.00;45119.53;5070540;28;20759;-61
2024/01/01 02:52:57;;;;;;;1.70;1.20;;;;;;;-143.84;100.00;45121.44;5070842;28;20520;-61
2024/01/01 02:55:24;;;;;;;1.10;1.00;;;;;;;-143.84;100.00;45098.56;5070505;28;20497;-61
2024/01/01 02:57:53;;;;;;;2.07;1.87;;;;;;;-143.84;100.00;45110.00;5070643;28;20432;-60
2024/01/01 03:00:20;;;;;;;1.20;1.07;;;;;;;-143.84;100.00;45070.00;5070353;28;20491;-60
2024/01/01 03:02:47;;;;;;;6.40;1.53;;;;;;;-143.84;100.00;45098.56;5070546;28;20437;-61
2024/01/01 03:05:14;;;;;;;1.13;1.03;;;;;;;-143.84;100.00;45113.81;5070291;28;20542;-61
2024/01/01 03:07:42;;;;;;;1.20;1.10;;;;;;;-143.84;100.00;45115.72;5070558;28;20850;-60
2024/01/01 03:10:10;;;;;;;1.40;1.10;;;;;;;-143.84;100.00;45102.38;5070157;28;20440;-60
2024/01/01 03:12:37;;;;;;;2.23;1.20;;;;;;;-143.84;100.00;45115.72;5070104;28;20433;-60
2024/01/01 03:15:07;;;;;;;2.63;2.20;;;;;;;-143.84;100.00;45083.34;5070578;28;20832;-60
2024/01/01 03:17:34;;;;;;;0.80;0.60;;;;;;;-143.84;100.00;45115.72;5070668;28;20437;-60
2024/01/01 03:20:02;;;;;;;2.10;1.90;;;;;;;-143.84;100.00;45125.22;5069831;28;20997;-60
2024/01/01 03:22:29;;;;;;;2.23;1.37;;;;;;;-143.84;100.00;45106.19;5070313;28;20544;-60
2024/01/01 03:24:56;;;;;;;2.00;1.50;;;;;;;-143.84;100.00;45111.91;5070019;28;20437;-60
2024/01/01 03:27:23;;;;;;;1.23;1.00;;;;;;;-143.84;100.00;45106.19;5070258;28;20947;-60
2024/01/01 03:29:50;;;;;;;2.53;2.40;;;;;;;-143.84;100.00;45119.53;5069827;28;20437;-60
2024/01/01 03:32:19;;;;;;;2.80;0.90;;;;;;;-143.84;100.00;45096.66;5070439;28;20837;-61
2024/01/01 03:34:46;;;;;;;1.77;1.67;;;;;;;-143.84;100.00;45094.78;5068913;28;20457;-61
2024/01/01 03:37:13;;;;;;;1.17;0.90;;;;;;;-143.84;100.00;45100.47;5069985;28;20835;-61
2024/01/01 03:39:41;;;;;;;0.90;0.80;;;;;;;-143.84;100.00;45104.28;5069865;28;20448;-61
2024/01/01 03:42:08;;;;;;;4.00;3.13;;;;;;;-143.84;100.00;45079.53;5069894;28;20437;-61
2024/01/01 03:44:35;;;;;;;1.23;0.93;;;;;;;-143.84;100.00;45087.16;5069979;28;20437;-60
2024/01/01 03:47:02;;;;;;;5.07;3.27;;;;;;;-143.84;100.00;45102.38;5069888;28;20472;-60
2024/01/01 03:49:31;;;;;;;0.80;0.50;;;;;;;-143.84;100.00;45108.09;5069690;28;20476;-60
2024/01/01 03:51:58;;;;;;;1.80;1.50;;;;;;;-143.84;100.00;45096.66;5068075;28;20445;-61
2024/01/01 03:54:25;;;;;;;2.30;2.03;;;;;;;-143.84;100.00;45090.97;5068161;28;21231;-60
2024/01/01 03:56:52;;;;;;;0.90;0.70;;;;;;;-143.84;100.00;45085.25;5068879;28;20462;-60
2024/01/01 03:59:19;;;;;;;1.27;1.10;;;;;;;-143.84;100.00;45094.78;5068891;28;21012;-60
2024/01/01 04:01:46;;;;;;;1.00;0.90;;;;;;;-143.84;100.00;45075.72;5069295;28;20516;-60
2024/01/01 04:04:13;;;;;;;1.53;1.43;;;;;;;-143.84;100.00;45066.22;5069113;28;20433;-62
2024/01/01 04:06:42;;;;;;;1.10;1.00;;;;;;;-143.84;100.00;45075.72;5069682;28;20464;-61
2024/01/01 04:09:10;;;;;;;4.93;1.93;;;;;;;-143.84;100.00;45083.34;5069810;28;20437;-60
2024/01/01 04:11:37;;;;;;;1.27;1.17;;;;;;;-143.84;100.00;45024.31;5069957;28;20441;-61
2024/01/01 04:14:04;;;;;;;1.00;0.90;;;;;;;-143.84;100.00;45039.53;5069929;28;20498;-61
2024/01/01 04:16:32;;;;;;;1.10;1.00;;;;;;;-143.84;100.00;45064.31;5070023;28;20485;-61
2024/01/01 04:18:59;;;;;;;1.80;1.70;;;;;;;-143.84;100.00;45066.22;5069655;28;20480;-61
2024/01/01 04:21:26;;;;;;;1.47;1.37;;;;;;;-143.84;100.00;45054.78;5070302;28;20429;-60
2024/01/01 04:23:57;;;;;;;2.20;2.00;;;;;;;-143.84;100.00;45092.88;5070020;28;20441;-60
2024/01/01 04:26:25;;;;;;;1.27;1.17;;;;;;;-143.84;100.00;45089.06;5069714;28;20471;-60
2024/01/01 04:28:52;;;;;;;1.60;1.23;;;;;;;-143.84;100.00;45075.72;5069522;28;20448;-61
2024/01/01 04:31:19;;;;;;;1.00;0.80;;;;;;;-143.84;100.00;45098.56;5069478;28;20950;-61
2024/01/01 04:33:46;;;;;;;1.37;1.23;;;;;;;-143.84;100.00;45100.47;5069566;28;20516;-61
2024/01/01 04:36:13;;;;;;;1.40;1.30;;;;;;;-143.84;100.00;45138.56;5069607;28;20527;-60
2024/01/01 04:38:40;;;;;;;1.00;0.90;;;;;;;-143.84;100.00;45104.28;5069366;28;20437;-61
2024/01/01 04:41:09;;;;;;;0.93;0.80;;;;;;;-143.84;100.00;45102.38;5069352;28;20494;-60
2024/01/01 04:43:38;;;;;;;3.30;1.80;;;;;;;-143.84;100.00;45110.00;5069420;28;20469;-62
2024/01/01 04:46:06;;;;;;;2.33;1.50;;;;;;;-143.84;100.00;45079.53;5069943;28;20571;-60
2024/01/01 04:48:33;;;;;;;1.30;1.20;;;;;;;-143.84;100.00;45077.63;5073075;28;20445;-61
2024/01/01 04:51:00;;;;;;;2.53;1.70;;;;;;;-143.84;100.00;45068.13;5073151;28;20437;-61
2024/01/01 04:53:28;;;;;;;2.67;2.47;;;;;;;-143.84;100.00;45064.31;5072949;28;20505;-60
2024/01/01 04:55:55;;;;;;;1.40;1.30;;;;;;;-143.84;100.00;45068.13;5073345;28;20464;-61
2024/01/01 04:58:23;;;;;;;2.20;2.00;;;;;;;-143.84;100.00;45071.91;5072679;28;20463;-61
2024/01/01 05:00:50;;;;;;;1.27;1.07;;;;;;;-143.84;100.00;45049.06;5072911;28;20992;-61
2024/01/01 05:03:17;;;;;;;3.90;1.53;;;;;;;-143.84;100.00;45037.66;5073064;28;20447;-60
2024/01/01 05:05:44;;;;;;;3.17;1.80;;;;;;;-143.84;100.00;45052.88;5072620;28;20476;-61
2024/01/01 05:08:12;;;;;;;2.53;2.43;;;;;;;-143.84;100.00;45092.88;5072880;28;20440;-60
2024/01/01 05:10:40;;;;;;;2.10;1.90;;;;;;;-143.84;100.00;45071.91;5072945;28;20509;-60
2024/01/01 05:13:08;;;;;;;2.47;2.23;;;;;;;-143.84;100.00;45045.25;5072673;28;20447;-59
2024/01/01 05:15:38;;;;;;;2.70;2.30;;;;;;;-143.84;100.00;45060.50;5072799;28;20453;-60
2024/01/01 05:18:05;;;;;;;1.70;1.60;;;;;;;-143.84;100.00;45087.16;5072234;28;20531;-61
2024/01/01 05:20:33;;;;;;;3.90;2.93;;;;;;;-143.84;100.00;45064.31;5072549;28;20475;-61
2024/01/01 05:23:00;;;;;;;3.40;3.10;;;;;;;-143.84;100.00;45068.13;5072842;28;20850;-59
2024/01/01 05:25:27;;;;;;;1.60;1.50;;;;;;;-143.84;100.00;45066.22;5072519;28;20445;-61
2024/01/01 05:27:55;;;;;;;1.47;1.37;;;;;;;-143.84;100.00;45073.81;5072422;28;20514;-60
2024/01/01 05:30:22;;;;;;;2.93;2.60;;;;;;;-143.84;100.00;45056.69;5072249;28;20440;-60
2024/01/01 05:32:50;;;;;;;2.07;1.97;;;;;;;-143.84;100.00;45058.59;5072481;28;21223;-61
2024/01/01 05:35:17;;;;;;;1.03;0.93;;;;;;;-143.84;100.00;45041.44;5072510;28;20445;-60
2024/01/01 05:37:44;;;;;;;3.30;2.40;;;;;;;-143.84;100.00;45062.41;5072443;28;20448;-60
2024/01/01 05:40:12;;;;;;;1.77;1.67;;;;;;;-143.84;100.00;45090.97;5072916;28;20796;-60
2024/01/01 05:42:39;;;;;;;3.00;1.60;;;;;;;-143.84;100.00;45073.81;5072237;28;20757;-60
2024/01/01 05:45:08;;;;;;;4.60;3.13;;;;;;;-143.84;100.00;45062.41;5072431;28;20433;-60
2024/01/01 05:47:35;;;;;;;0.93;0.83;;;;;;;-143.84;100.00;45052.88;5072054;28;21015;-61
2024/01/01 05:50:04;;;;;;;2.13;2.03;;;;;;;-143.84;100.00;45033.84;5071837;28;20433;-61
2024/01/01 05:52:31;;;;;;;3.37;2.20;;;;;;;-143.84;100.00;45049.06;5071996;28;20445;-60
2024/01/01 05:54:58;;;;;;;3.90;3.10;;;;;;;-143.84;100.00;45058.59;5072030;28;20460;-59
2024/01/01 05:57:25;;;;;;;13.53;4.47;;;;;;;-143.84;100.00;45033.84;5071224;28;20509;-61
2024/01/01 05:59:52;;;;;;;2.83;2.57;;;;;;;-143.84;100.00;45047.16;5071278;28;20441;-61
2024/01/01 06:02:19;;;;;;;8.70;1.80;;;;;;;-143.84;100.00;45033.84;5071737;28;20433;-60
2024/01/01 06:04:46;;;;;;;4.00;3.07;;;;;;;-143.84;100.00;45045.25;5072106;28;21028;-61
2024/01/01 06:07:15;;;;;;;4.67;4.27;;;;;;;-143.84;100.00;45022.41;5071691;28;20529;-60
2024/01/01 06:09:42;;;;;;;2.50;2.17;;;;;;;-143.84;100.00;45054.78;5071563;28;20997;-61
2024/01/01 06:12:09;;;;;;;3.83;3.53;;;;;;;-143.84;100.00;45043.34;5071312;28;20930;-61
2024/01/01 06:14:36;;;;;;;1.97;1.87;;;;;;;-143.84;100.00;45064.31;5071589;28;20440;-60
2024/01/01 06:17:03;;;;;;;1.57;1.40;;;;;;;-143.84;100.00;45047.16;5071546;28;20443;-60
2024/01/01 06:19:31;;;;;;;6.03;2.90;;;;;;;-143.84;100.00;45039.53;5071360;28;20480;-60
2024/01/01 06:21:58;;;;;;;2.93;2.73;;;;;;;-143.84;100.00;45045.25;5071690;28;20434;-61
2024/01/01 06:24:26;;;;;;;4.63;3.43;;;;;;;-143.84;100.00;45064.31;5071170;28;20452;-61
2024/01/01 06:26:53;;;;;;;4.63;2.17;;;;;;;-143.84;100.00;45071.91;5071055;28;20479;-60
2024/01/01 06:29:21;;;;;;;4.70;2.60;;;;;;;-143.84;100.00;45041.44;5070760;28;20445;-59
2024/01/01 06:31:48;;;;;;;4.10;3.27;;;;;;;-143.84;100.00;45026.22;5071099;28;20464;-60
2024/01/01 06:34:16;;;;;;;1.60;1.50;;;;;;;-143.84;100.00;45062.41;5071089;28;20433;-60
2024/01/01 06:36:43;;;;;;;5.40;4.87;;;;;;;-143.84;100.00;45056.69;5071235;28;20502;-60
2024/01/01 06:39:10;;;;;;;3.83;3.00;;;;;;;-143.84;100.00;45047.16;5071014;28;20448;-60
2024/01/01 06:41:38;;;;;;;4.60;4.10;;;;;;;-143.84;100.00;45081.44;5070795;28;20452;-60
2024/01/01 06:44:06;;;;;;;3.03;2.70;;;;;;;-143.84;100.00;45075.72;5070956;28;20518;-60
2024/01/01 06:46:33;;;;;;;3.77;3.17;;;;;;;-143.84;100.00;45113.81;5070424;28;20484;-60
2024/01/01 06:49:00;;;;;;;2.37;2.07;;;;;;;-143.84;100.00;45077.63;5070890;28;20852;-61
2024/01/01 06:51:27;;;;;;;1.53;1.43;;;;;;;-143.84;100.00;45071.91;5070761;28;20436;-61
2024/01/01 06:53:54;;;;;;;5.13;3.37;;;;;;;-143.84;100.00;45041.44;5070516;28;20425;-60
2024/01/01 06:56:21;;;;;;;3.30;3.07;;;;;;;-143.84;100.00;45071.91;5070499;28;20498;-61
2024/01/01 06:58:50;;;;;;;2.60;2.10;;;;;;;-143.84;100.00;45070.00;5070973;28;20851;-60
2024/01/01 07:01:17;;;;;;;3.70;2.90;;;;;;;-143.84;100.00;45060.50;5070633;28;20456;-61
2024/01/01 07:03:44;;;;;;;2.67;2.47;;;;;;;-143.84;100.00;45083.34;5070587;28;20452;-61
2024/01/01 07:06:11;;;;;;;3.63;3.13;;;;;;;-143.84;100.00;45092.88;5070253;28;20441;-60
2024/01/01 07:08:39;;;;;;;3.70;3.37;;;;;;;-143.84;100.00;45077.63;5070670;28;20432;-60
2024/01/01 07:11:06;;;;;;;3.33;2.83;;;;;;;-143.84;100.00;45085.25;5070407;28;20528;-60
2024/01/01 07:13:35;;;;;;;4.50;3.00;;;;;;;-143.84;99.42;45115.72;5070079;28;20445;-60
2024/01/01 07:16:04;;;;;;;2.60;1.77;;;;;;;-143.84;98.83;45130.94;5070231;28;20866;-60
2024/01/01 07:18:31;;;;;;;3.30;3.00;;;;;;;-143.84;98.09;45119.53;5070262;28;20549;-61
2024/01/01 07:21:00;;;;;;;4.63;3.83;;;;;;;-143.84;97.30;45115.72;5070825;28;20432;-60
2024/01/01 07:23:27;;;;;;;4.33;3.93;;;;;;;-143.84;97.21;45132.84;5070241;28;20486;-60
2024/01/01 07:25:54;;;;;;;2.63;2.43;;;;;;;-143.84;96.67;45130.94;5069853;28;20433;-60
2024/01/01 07:28:21;;;;;;;3.63;3.33;;;;;;;-143.84;96.23;45125.22;5069757;28;20487;-61
2024/01/01 07:30:49;;;;;;;1.67;1.57;;;;;;;-143.84;95.82;45123.34;5070258;28;20846;-60
2024/01/01 07:33:17;;;;;;;3.43;2.80;;;;;;;-143.84;95.53;45134.75;5070165;28;20452;-61
2024/01/01 07:35:44;;;;;;;10.53;3.87;;;;;;;-143.84;94.93;45110.00;5070052;28;20847;-60
2024/01/01 07:38:12;;;;;;;10.70;2.20;;;;;;;-143.84;94.63;45117.63;5069899;28;20494;-60
2024/01/01 07:40:39;;;;;;;2.83;1.80;;;;;;;-143.84;94.46;45130.94;5070074;28;20510;-60
2024/01/01 07:43:06;;;;;;;2.73;2.50;;;;;;;-143.84;93.32;45136.66;5069985;28;20436;-60
2024/01/01 07:45:33;;;;;;;1.63;1.53;;;;;;;-143.84;93.14;45121.44;5069714;28;20432;-61
2024/01/01 07:48:00;;;;;;;3.33;3.03;;;;;;;-143.84;92.98;45132.84;5069726;28;20476;-61
2024/01/01 07:50:29;;;;;;;4.00;3.53;;;;;;;-143.84;92.49;45129.03;5069960;28;20812;-60
2024/01/01 07:52:56;;;;;;;3.07;2.87;;;;;;;-143.84;92.15;45108.09;5069594;28;20448;-60
2024/01/01 07:55:23;;;;;;;9.83;5.33;;;;;;;-143.84;92.49;45132.84;5069823;28;20922;-59
2024/01/01 07:57:50;;;;;;;6.83;3.50;;;;;;;-143.84;92.26;45110.00;5070103;28;20546;-60
2024/01/01 08:00:19;;;;;;;13.43;3.77;;;;;;;-143.84;92.61;45155.69;5069543;28;20472;-61
2024/01/01 08:02:46;;;;;;;2.70;2.60;;;;;;;-143.84;92.48;45127.13;5069178;28;20514;-61
2024/01/01 08:05:13;;;;;;;3.97;3.30;;;;;;;-143.84;92.78;45132.84;5069505;28;20861;-60
2024/01/01 08:07:47;;;;;;;2.60;2.40;;;;;;;-143.84;93.74;45106.19;5069376;28;20480;-60
2024/01/01 08:10:15;;;;;;;5.97;4.20;;;;;;;-143.84;93.77;45150.00;5069404;28;20440;-60
2024/01/01 08:12:42;;;;;;;3.30;3.10;;;;;;;-143.84;93.58;45106.19;5070055;28;20452;-60
2024/01/01 08:15:10;;;;;;;3.67;1.80;;;;;;;-143.84;93.39;45117.63;5069449;28;21023;-60
2024/01/01 08:17:37;;;;;;;2.67;2.47;;;;;;;-143.84;92.61;45129.03;5069949;28;20950;-60
2024/01/01 08:20:05;;;;;;;3.97;2.90;;;;;;;-143.84;92.07;45140.47;5069381;28;20491;-61
2024/01/01 08:22:32;;;;;;;5.10;2.37;;;;;;;-143.84;91.21;45144.28;5073038;28;20962;-60
2024/01/01 08:25:01;;;;;;;12.63;4.33;;;;;;;-143.84;89.53;45113.81;5073385;28;20555;-60
2024/01/01 08:27:28;;;;;;;5.73;2.90;;;;;;;-143.84;89.63;45121.44;5072248;28;21211;-60
2024/01/01 08:29:55;;;;;;;3.60;3.27;;;;;;;-143.84;88.84;45127.13;5071822;28;20463;-60
2024/01/01 08:32:22;;;;;;;2.30;2.10;;;;;;;-143.84;88.21;45129.03;5072283;28;20493;-61
2024/01/01 08:34:49;;;;;;;7.40;3.53;;;;;;;-143.84;87.20;45127.13;5072734;28;20594;-60
2024/01/01 08:37:17;;;;;;;2.67;2.47;;;;;;;-143.84;86.35;45123.34;5072411;28;20438;-60
2024/01/01 08:39:44;;;;;;;9.27;5.50;;;;;;;-143.84;85.60;45140.47;5072482;28;20488;-60
2024/01/01 08:42:13;;;;;;;8.83;3.20;;;;;;;-143.84;85.55;45129.03;5073077;28;20866;-60
2024/01/01 08:44:40;;;;;;;4.13;2.43;;;;;;;-143.84;84.34;45092.88;5073053;28;20542;-60
2024/01/01 08:47:07;;;;;;;3.60;3.33;;;;;;;-143.84;84.77;45111.91;5073062;28;20479;-60
2024/01/01 08:49:35;;;;;;;2.50;1.50;;;;;;;-143.84;84.19;45125.22;5072992;28;20456;-60
2024/01/01 08:52:02;;;;;;;3.83;2.30;;;;;;;-143.84;84.26;45125.22;5073013;28;20444;-60
2024/01/01 08:54:29;;;;;;;2.80;2.60;;;;;;;-143.84;84.54;45104.28;5072656;28;20506;-60
2024/01/01 08:56:56;;;;;;;7.20;2.83;;;;;;;-143.84;82.84;45108.09;5073117;28;20490;-60
2024/01/01 08:59:24;;;;;;;4.43;2.50;;;;;;;-143.84;81.98;45125.22;5072904;28;20437;-60
2024/01/01 09:01:51;;;;;;;6.00;2.63;;;;;;;-143.84;81.85;45100.47;5072806;28;20433;-60
2024/01/01 09:04:19;;;;;;;5.17;3.33;;;;;;;-143.84;81.98;45110.00;5072652;28;20440;-60
2024/01/01 09:06:46;;;;;;;3.83;2.97;;;;;;;-143.84;81.33;45108.09;5073185;28;20881;-60
2024/01/01 09:09:13;;;;;;;8.23;4.73;;;;;;;-143.84;81.36;45094.78;5072345;28;20506;-60
2024/01/01 09:11:40;;;;;;;2.50;2.30;;;;;;;-143.84;81.35;45115.72;5072455;28;20490;-60
2024/01/01 09:14:07;;;;;;;3.50;3.00;;;;;;;-143.84;81.47;45090.97;5072380;28;20491;-60
2024/01/01 09:16:38;;;;;;;5.50;2.73;;;;;;;-143.84;82.58;45098.56;5072217;28;20437;-60
2024/01/01 09:19:05;;;;;;;2.83;1.33;;;;;;;-143.84;83.05;45123.34;5072518;28;20484;-61
2024/01/01 09:21:32;;;;;;;3.63;2.80;;;;;;;-143.84;82.95;45111.91;5072536;28;20417;-61
2024/01/01 09:24:00;;;;;;;10.30;4.17;;;;;;;-143.84;83.40;45119.53;5072464;28;20517;-60
2024/01/01 09:26:28;;;;;;;2.87;2.67;;;;;;;-143.84;84.30;45117.63;5072205;28;20490;-60
2024/01/01 09:28:55;;;;;;;4.00;2.60;;;;;;;-143.84;83.16;45113.81;5072248;28;20551;-61
2024/01/01 09:31:22;;;;;;;2.90;2.37;;;;;;;-143.84;81.75;45104.28;5071860;28;20441;-60
2024/01/01 09:33:50;;;;;;;3.90;2.47;;;;;;;-143.84;80.59;45092.88;5070882;28;20499;-60
2024/01/01 09:36:18;;;;;;;3.13;2.60;;;;;;;-143.84;80.66;45117.63;5072228;28;20445;-60
2024/01/01 09:38:45;;;;;;;6.87;4.37;;;;;;;-143.84;79.90;45090.97;5072094;28;20779;-60
2024/01/01 09:41:13;;;;;;;2.40;1.77;;;;;;;-143.84;80.38;45087.16;5072158;28;20428;-60
2024/01/01 09:43:42;;;;;;;2.63;2.33;;;;;;;-143.84;79.56;45123.34;5071311;28;20554;-61
2024/01/01 09:46:10;;;;;;;2.97;2.30;;;;;;;-143.84;79.91;45100.47;5072397;28;20518;-60
2024/01/01 09:48:37;;;;;;;3.60;3.10;;;;;;;-143.84;80.67;45081.44;5071579;28;20933;-60
2024/01/01 09:51:07;;;;;;;1.87;1.17;;;;;;;-143.84;79.65;45123.34;5071764;28;20447;-60
2024/01/01 09:53:34;;;;;;;4.20;3.50;;;;;;;-143.84;76.84;45087.16;5071810;28;21236;-60
2024/01/01 09:56:01;;;;;;;2.43;2.23;;;;;;;-143.84;77.34;45136.66;5071969;28;21227;-60
2024/01/01 09:58:28;;;;;;;2.13;1.37;;;;;;;-143.84;78.96;45106.19;5071791;28;20847;-60
2024/01/01 10:01:10;;;;;;;2.70;2.13;;;;;;;-143.84;79.22;45102.38;5071764;28;20433;-59
2024/01/01 10:03:37;;;;;;;9.20;3.53;;;;;;;-143.84;79.91;45119.53;5071616;28;20804;-60
2024/01/01 10:06:11;;;;;;;2.90;2.70;;;;;;;-143.84;81.67;45115.72;5071004;28;20494;-61
2024/01/01 10:08:38;;;;;;;2.73;1.80;;;;;;;-143.84;81.97;45130.94;5071118;28;20530;-60
2024/01/01 10:11:20;;;;;;;2.90;1.87;;;;;;;-143.84;82.13;45117.63;5071303;28;20429;-60
2024/01/01 10:13:49;;;;;;;4.03;2.07;;;;;;;-143.84;82.94;45123.34;5069182;28;20452;-60
2024/01/01 10:16:26;;;;;;;2.23;2.13;;;;;;;-143.84;82.83;45115.72;5071087;28;20433;-60
2024/01/01 10:18:55;;;;;;;3.37;2.47;;;;;;;-143.84;83.67;45100.47;5071219;28;20534;-60
2024/01/01 10:21:28;;;;;;;2.40;1.80;;;;;;;-143.84;84.81;45111.91;5071178;28;20480;-60
2024/01/01 10:23:55;;;;;;;12.13;2.03;;;;;;;-143.84;85.52;45125.22;5071170;28;20551;-59
2024/01/01 10:26:23;;;;;;;1.67;1.57;;;;;;;-143.84;85.37;45110.00;5071223;28;20440;-61
2024/01/01 10:28:50;;;;;;;1.60;1.50;;;;;;;-143.84;85.66;45140.47;5070918;28;20480;-60
2024/01/01 10:31:17;;;;;;;2.30;2.20;;;;;;;-143.84;85.83;45144.28;5071264;28;20506;-60
2024/01/01 10:33:49;;;;;;;2.73;2.53;;;;;;;-143.84;86.01;45125.22;5071050;28;20428;-61
2024/01/01 10:36:17;;;;;;;2.30;1.77;;;;;;;-143.84;86.38;45102.38;5071117;28;20510;-61
2024/01/01 10:38:48;;;;;;;2.63;2.40;;;;;;;-143.84;86.30;45127.13;5070964;28;20449;-60
2024/01/01 10:41:17;;;;;;;2.93;2.30;;;;;;;-143.84;86.62;45129.03;5070926;28;20453;-60
2024/01/01 10:43:46;;;;;;;4.50;2.33;;;;;;;-143.84;86.01;45111.91;5070588;28;20439;-60
2024/01/01 10:46:14;;;;;;;5.00;2.53;;;;;;;-143.84;86.22;45115.72;5070759;28;20451;-60
2024/01/01 10:48:43;;;;;;;3.03;2.20;;;;;;;-143.84;84.91;45129.03;5070490;28;20481;-60
2024/01/01 10:51:34;;;;;;;20.07;2.20;;;;;;;-143.84;84.66;45132.84;5070614;28;20439;-60
2024/01/01 10:54:27;;;;;;;0.90;0.80;;;;;;;-143.84;84.40;45136.66;5070466;28;20524;-60
2024/01/01 10:57:04;;;;;;;18.13;2.10;;;;;;;-143.84;83.64;45094.78;5070420;28;20445;-61
2024/01/01 10:59:39;;;;;;;2.03;1.93;;;;;;;-143.84;83.42;45113.81;5070571;28;20432;-61
2024/01/01 11:02:08;;;;;;;2.93;2.73;;;;;;;-143.84;81.77;45119.53;5070447;28;20498;-60
2024/01/01 11:04:35;;;;;;;3.43;3.13;;;;;;;-143.84;80.33;45123.34;5070063;28;20863;-60
2024/01/01 11:07:03;;;;;;;1.30;1.20;;;;;;;-143.84;79.50;45127.13;5070060;28;20444;-61
2024/01/01 11:09:34;;;;;;;2.70;1.40;;;;;;;-143.84;79.14;45119.53;5070626;28;20487;-60
2024/01/01 11:12:04;;;;;;;1.40;1.30;;;;;;;-143.84;78.16;45092.88;5070574;28;20956;-61
2024/01/01 11:14:32;;;;;;;3.20;2.23;;;;;;;-143.84;75.95;45113.81;5070267;28;20977;-60
2024/01/01 11:17:06;;;;;;;4.07;2.40;;;;;;;-143.84;76.92;45106.19;5069864;28;20453;-60
2024/01/01 11:19:37;;;;;;;3.53;2.27;;;;;;;-143.84;77.61;45110.00;5070034;28;20491;-60